Babbitt, Nevada
Current Conditions -  °F | °C
As of 1:52 AM on Wednesday 26 Nov 2014 (Local Time) from KBAN Reporting Station
Clear Clear  
Wind Chill: 24°   Ceiling: Unl
Heat Index: 24°   Visibility: NA
Dew Point: 19°   Wind: 0mph
Humidity: 81%   Direction: NA
Pressure: 30.53"   Gusts: NA
Location:  38.6331°N, 118.656°W
Report Text: KBAN 260952Z AUTO 00000KT CLR M04/M07 A3053 RMK AO2 SLP314 T10441072 FZRANO $
Loading
Personal Weather Stations






























Interactive Weather Map New forecast layout! Learn more

10-Day Weather Forecast

Advertisements
Track Severe Weather on mobile